createdAt,value
2022-08-28T00:01:45.252Z,23.06
2022-08-28T00:04:47.476Z,23.02
2022-08-28T00:07:49.882Z,23.03
2022-08-28T00:10:52.096Z,23.03
2022-08-28T00:13:54.207Z,22.94
2022-08-28T00:16:58.888Z,22.91
2022-08-28T00:20:00.962Z,22.95
2022-08-28T00:23:03.856Z,22.94
2022-08-28T00:26:05.989Z,22.87
2022-08-28T00:29:08.531Z,22.83
2022-08-28T00:32:10.721Z,22.86
2022-08-28T00:35:12.951Z,22.77
2022-08-28T00:38:15.493Z,22.81
2022-08-28T00:41:17.629Z,22.80
2022-08-28T00:44:28.848Z,22.81
2022-08-28T00:47:30.914Z,22.70
2022-08-28T00:50:54.381Z,22.77
2022-08-28T00:54:07.379Z,22.75
2022-08-28T00:57:14.723Z,22.67
2022-08-28T01:00:25.798Z,22.67
2022-08-28T01:03:28.168Z,22.71
2022-08-28T01:06:30.251Z,22.66
2022-08-28T01:09:33.617Z,22.63
2022-08-28T01:12:36.519Z,22.65
2022-08-28T01:15:42.114Z,22.65
2022-08-28T01:18:44.934Z,22.66
2022-08-28T01:22:01.920Z,22.54
2022-08-28T01:25:06.919Z,22.55
2022-08-28T01:28:12.520Z,22.54
2022-08-28T01:31:17.081Z,22.49
2022-08-28T01:34:19.189Z,22.54
2022-08-28T01:37:21.371Z,22.55
2022-08-28T01:40:45.243Z,22.48
2022-08-28T01:43:49.908Z,22.49
2022-08-28T01:46:53.726Z,22.41
2022-08-28T01:49:55.773Z,22.44
2022-08-28T01:52:57.819Z,22.41
2022-08-28T01:56:02.042Z,22.38
2022-08-28T01:59:07.773Z,22.42
2022-08-28T02:02:10.749Z,22.42
2022-08-28T02:05:12.905Z,22.39
2022-08-28T02:08:15.247Z,22.42
2022-08-28T02:11:17.458Z,22.40
2022-08-28T02:14:19.496Z,22.34
2022-08-28T02:17:21.539Z,22.26
2022-08-28T02:20:24.444Z,22.29
2022-08-28T02:23:26.624Z,22.31
2022-08-28T02:26:30.142Z,22.24
2022-08-28T02:29:32.237Z,22.23
2022-08-28T02:32:34.432Z,22.23
2022-08-28T02:35:36.480Z,22.22
2022-08-28T02:38:38.956Z,22.17
2022-08-28T02:41:41.177Z,22.18
2022-08-28T02:44:43.254Z,22.23
2022-08-28T02:47:46.300Z,22.22
2022-08-28T02:50:48.385Z,22.16
2022-08-28T02:53:52.012Z,22.07
2022-08-28T02:56:55.309Z,22.02
2022-08-28T02:59:58.907Z,22.08
2022-08-28T03:03:00.964Z,22.07
2022-08-28T03:06:04.204Z,22.09
2022-08-28T03:09:06.391Z,21.98
2022-08-28T03:12:10.545Z,22.04
2022-08-28T03:15:13.096Z,21.93
2022-08-28T03:18:16.162Z,22.01
2022-08-28T03:21:18.599Z,21.92
2022-08-28T03:24:21.289Z,21.99
2022-08-28T03:27:23.319Z,21.97
2022-08-28T03:30:25.716Z,21.87
2022-08-28T03:33:28.026Z,21.89
2022-08-28T03:36:30.228Z,21.88
2022-08-28T03:39:32.522Z,21.87
2022-08-28T03:42:35.086Z,21.82
2022-08-28T03:45:37.563Z,21.83
2022-08-28T03:48:43.488Z,21.89
2022-08-28T03:51:47.090Z,21.82
2022-08-28T03:54:49.172Z,21.85
2022-08-28T03:57:51.542Z,21.76
2022-08-28T04:00:54.104Z,21.77
2022-08-28T04:03:56.640Z,21.80
2022-08-28T04:06:58.662Z,21.78
2022-08-28T04:10:00.788Z,21.69
2022-08-28T04:13:03.527Z,21.72
2022-08-28T04:16:12.226Z,21.69
2022-08-28T04:19:14.395Z,21.66
2022-08-28T04:22:16.422Z,21.63
2022-08-28T04:25:21.712Z,21.63
2022-08-28T04:28:25.812Z,21.73
2022-08-28T04:31:31.137Z,21.67
2022-08-28T04:34:36.580Z,21.67
2022-08-28T04:37:39.123Z,21.63
2022-08-28T04:40:42.208Z,21.61
2022-08-28T04:43:44.976Z,21.54
2022-08-28T04:46:48.230Z,21.57
2022-08-28T04:49:50.684Z,21.57
2022-08-28T04:52:53.545Z,21.66
2022-08-28T04:55:58.934Z,21.57
2022-08-28T04:59:02.179Z,21.53
2022-08-28T05:02:05.699Z,21.39
2022-08-28T05:05:08.200Z,21.38
2022-08-28T05:08:10.828Z,21.47
2022-08-28T05:11:32.664Z,21.35
2022-08-28T05:14:36.607Z,21.39
2022-08-28T05:17:38.658Z,21.46
2022-08-28T05:20:43.541Z,21.48
2022-08-28T05:23:45.879Z,21.45
2022-08-28T05:26:47.999Z,21.51
2022-08-28T05:29:51.067Z,21.49
2022-08-28T05:32:53.896Z,21.52
2022-08-28T05:35:55.947Z,21.50
2022-08-28T05:38:59.128Z,21.45
2022-08-28T05:42:01.270Z,21.46
2022-08-28T05:45:03.639Z,21.42
2022-08-28T05:48:06.341Z,21.45
2022-08-28T05:51:11.035Z,21.52
2022-08-28T05:54:14.981Z,21.53
2022-08-28T05:57:17.160Z,21.60
2022-08-28T06:00:19.354Z,21.65
2022-08-28T06:03:22.967Z,21.59
2022-08-28T06:06:26.792Z,21.34
2022-08-28T06:09:30.215Z,20.45
2022-08-28T06:12:32.441Z,20.71
2022-08-28T06:15:35.970Z,20.95
2022-08-28T06:18:38.280Z,21.20
2022-08-28T06:21:41.588Z,21.14
2022-08-28T06:24:43.935Z,21.32
2022-08-28T06:27:46.051Z,21.45
2022-08-28T06:31:17.843Z,21.48
2022-08-28T06:34:12.274Z,21.47
2022-08-28T06:37:14.338Z,21.37
2022-08-28T06:40:16.474Z,21.54
2022-08-28T06:43:20.352Z,21.37
2022-08-28T06:46:23.133Z,21.35
2022-08-28T06:49:25.207Z,21.38
2022-08-28T06:52:27.379Z,21.60
2022-08-28T06:55:29.412Z,21.58
2022-08-28T06:58:32.585Z,21.73
2022-08-28T07:01:37.010Z,21.79
2022-08-28T07:04:39.163Z,21.72
2022-08-28T07:07:42.334Z,21.53
2022-08-28T07:10:44.422Z,21.70
2022-08-28T07:13:46.916Z,21.84
2022-08-28T07:16:49.216Z,22.05
2022-08-28T07:19:51.652Z,22.31
2022-08-28T07:22:57.366Z,22.46
2022-08-28T07:26:08.613Z,22.47
2022-08-28T07:29:11.715Z,22.50
2022-08-28T07:32:15.758Z,22.46
2022-08-28T07:35:19.107Z,22.70
2022-08-28T07:38:21.723Z,22.70
2022-08-28T07:41:32.205Z,22.62
2022-08-28T07:44:49.821Z,22.64
2022-08-28T07:47:51.957Z,22.56
2022-08-28T07:50:54.084Z,22.63
2022-08-28T07:53:57.461Z,22.71
2022-08-28T07:56:59.721Z,22.69
2022-08-28T08:00:02.165Z,22.64
2022-08-28T08:03:04.976Z,22.64
2022-08-28T08:06:07.450Z,22.77
2022-08-28T08:09:12.178Z,22.80
2022-08-28T08:12:15.111Z,22.75
2022-08-28T08:15:17.467Z,22.68
2022-08-28T08:18:19.623Z,22.64
2022-08-28T08:21:30.010Z,22.56
2022-08-28T08:24:32.847Z,22.61
2022-08-28T08:27:38.792Z,22.55
2022-08-28T08:30:43.552Z,22.51
2022-08-28T08:33:51.891Z,22.55
2022-08-28T08:36:54.251Z,22.82
2022-08-28T08:39:56.338Z,22.90
2022-08-28T08:42:58.523Z,22.80
2022-08-28T08:46:00.859Z,22.75
2022-08-28T08:49:16.252Z,22.82
2022-08-28T08:52:30.146Z,22.79
2022-08-28T08:55:42.952Z,22.68
2022-08-28T08:58:51.374Z,22.71
2022-08-28T09:02:18.095Z,22.66
2022-08-28T09:05:23.959Z,22.75
2022-08-28T09:08:32.453Z,22.79
2022-08-28T09:11:56.948Z,22.77
2022-08-28T09:15:08.875Z,22.75
2022-08-28T09:18:27.054Z,22.72
2022-08-28T09:21:33.350Z,22.81
2022-08-28T09:24:38.627Z,22.84
2022-08-28T09:27:52.728Z,22.86
2022-08-28T09:31:28.950Z,23.03
2022-08-28T09:34:38.606Z,23.14
2022-08-28T09:37:42.591Z,23.17
2022-08-28T09:41:03.283Z,23.23
2022-08-28T09:44:05.328Z,23.26
2022-08-28T09:47:07.389Z,23.36
2022-08-28T09:50:21.402Z,23.34
2022-08-28T09:53:23.840Z,23.41
2022-08-28T09:56:34.195Z,23.32
2022-08-28T09:59:36.262Z,23.32
2022-08-28T10:02:51.179Z,23.40
2022-08-28T10:06:15.286Z,23.46
2022-08-28T10:09:27.596Z,23.51
2022-08-28T10:13:06.095Z,23.50
2022-08-28T10:16:36.664Z,23.47
2022-08-28T10:20:15.524Z,23.52
2022-08-28T10:23:41.004Z,23.58
2022-08-28T10:27:04.519Z,23.61
2022-08-28T10:30:14.909Z,23.67
2022-08-28T10:33:39.726Z,23.67
2022-08-28T10:36:46.135Z,23.73
2022-08-28T10:39:57.356Z,23.72
2022-08-28T10:43:11.855Z,23.67
2022-08-28T10:46:34.964Z,23.55
2022-08-28T10:49:42.252Z,23.62
2022-08-28T10:52:54.810Z,23.68
2022-08-28T10:56:02.726Z,23.73
2022-08-28T10:59:04.881Z,23.85
2022-08-28T11:02:09.025Z,24.06
2022-08-28T11:05:11.439Z,23.98
2022-08-28T11:08:32.460Z,24.10
2022-08-28T11:11:49.063Z,24.06
2022-08-28T11:14:51.508Z,24.08
2022-08-28T11:18:18.764Z,24.05
2022-08-28T11:21:28.582Z,24.17
2022-08-28T11:24:44.072Z,24.39
2022-08-28T11:28:17.716Z,24.50
2022-08-28T11:31:29.124Z,24.48
2022-08-28T11:35:01.494Z,24.54
2022-08-28T11:38:04.397Z,24.42
2022-08-28T11:41:24.390Z,24.31
2022-08-28T11:44:41.767Z,24.25
2022-08-28T11:47:46.155Z,24.19
2022-08-28T11:51:09.068Z,24.19
2022-08-28T11:54:35.192Z,24.19
2022-08-28T12:01:11.743Z,24.17
2022-08-28T12:04:21.272Z,24.19
2022-08-28T12:07:32.791Z,24.23
2022-08-28T12:10:34.836Z,24.20
2022-08-28T12:13:51.383Z,24.25
2022-08-28T12:16:59.648Z,24.31
2022-08-28T12:20:24.791Z,24.33
2022-08-28T12:23:36.202Z,24.36
2022-08-28T12:26:45.176Z,24.46
2022-08-28T12:29:58.831Z,24.49
2022-08-28T12:33:13.582Z,24.54
2022-08-28T12:36:17.551Z,24.59
2022-08-28T12:39:19.609Z,24.69
2022-08-28T12:42:29.534Z,24.83
2022-08-28T12:45:53.774Z,24.85
2022-08-28T12:49:00.177Z,24.94
2022-08-28T12:52:19.159Z,25.00
2022-08-28T12:55:24.457Z,25.13
2022-08-28T12:58:32.965Z,25.13
2022-08-28T13:01:35.564Z,25.13
2022-08-28T13:05:04.971Z,24.99
2022-08-28T13:08:11.227Z,24.86
2022-08-28T13:11:19.728Z,24.79
2022-08-28T13:14:43.239Z,24.76
2022-08-28T13:17:49.937Z,24.79
2022-08-28T13:20:51.988Z,24.83
2022-08-28T13:23:58.838Z,24.90
2022-08-28T13:27:10.420Z,25.02
2022-08-28T13:30:20.715Z,25.19
2022-08-28T13:33:25.618Z,25.23
2022-08-28T13:36:27.790Z,25.31
2022-08-28T13:39:32.700Z,25.34
2022-08-28T13:42:34.767Z,25.45
2022-08-28T13:45:42.537Z,25.62
2022-08-28T13:48:45.800Z,25.62
2022-08-28T13:51:48.182Z,25.67
2022-08-28T13:54:51.004Z,25.65
2022-08-28T13:57:53.124Z,25.69
2022-08-28T14:00:55.458Z,25.63
2022-08-28T14:03:58.730Z,25.52
2022-08-28T14:07:00.816Z,25.60
2022-08-28T14:10:04.554Z,25.56
2022-08-28T14:13:07.047Z,25.76
2022-08-28T14:16:09.288Z,25.84
2022-08-28T14:19:11.384Z,25.84
2022-08-28T14:22:16.236Z,25.79
2022-08-28T14:25:18.402Z,25.78
2022-08-28T14:28:20.533Z,25.88
2022-08-28T14:31:24.720Z,25.83
2022-08-28T14:34:28.857Z,25.86
2022-08-28T14:37:30.965Z,25.82
2022-08-28T14:40:35.403Z,25.84
2022-08-28T14:43:37.614Z,25.80
2022-08-28T14:46:42.132Z,25.81
2022-08-28T14:49:44.416Z,25.80
2022-08-28T14:52:46.611Z,25.79
2022-08-28T14:55:52.991Z,25.77
2022-08-28T14:58:55.651Z,25.80
2022-08-28T15:01:59.977Z,25.87
2022-08-28T15:05:02.179Z,25.87
2022-08-28T15:08:08.329Z,25.87
2022-08-28T15:11:18.785Z,25.90
2022-08-28T15:14:23.848Z,25.92
2022-08-28T15:17:34.126Z,25.93
2022-08-28T15:20:42.569Z,25.90
2022-08-28T15:23:44.832Z,25.90
2022-08-28T15:26:47.030Z,25.87
2022-08-28T15:29:49.370Z,25.87
2022-08-28T15:32:51.506Z,25.90
2022-08-28T15:35:57.199Z,25.84
2022-08-28T15:39:17.800Z,25.87
2022-08-28T15:42:19.935Z,25.82
2022-08-28T15:45:22.654Z,25.83
2022-08-28T15:48:24.725Z,25.82
2022-08-28T15:51:27.088Z,25.82
2022-08-28T15:54:30.193Z,25.75
2022-08-28T15:57:32.594Z,25.75
2022-08-28T16:00:34.778Z,25.81
2022-08-28T16:03:38.272Z,25.82
2022-08-28T16:06:42.018Z,25.76
2022-08-28T16:09:44.102Z,25.74
2022-08-28T16:12:48.002Z,25.75
2022-08-28T16:15:57.797Z,25.77
2022-08-28T16:18:59.954Z,25.80
2022-08-28T16:22:02.468Z,25.80
2022-08-28T16:25:05.841Z,25.78
2022-08-28T16:28:08.413Z,25.81
2022-08-28T16:31:19.239Z,25.77
2022-08-28T16:34:22.769Z,25.76
2022-08-28T16:37:26.014Z,25.78
2022-08-28T16:40:45.242Z,25.77
2022-08-28T16:43:48.509Z,25.79
2022-08-28T16:46:51.283Z,25.73
2022-08-28T16:49:57.716Z,25.74
2022-08-28T16:53:03.536Z,25.74
2022-08-28T16:56:09.626Z,25.72
2022-08-28T16:59:11.751Z,25.69
2022-08-28T17:02:15.649Z,25.65
2022-08-28T17:05:19.924Z,25.64
2022-08-28T17:08:22.411Z,25.59
2022-08-28T17:11:28.470Z,25.56
2022-08-28T17:14:30.522Z,25.52
2022-08-28T17:17:33.123Z,25.51
2022-08-28T17:20:53.944Z,25.51
2022-08-28T17:23:57.122Z,25.48
2022-08-28T17:27:04.606Z,25.45
2022-08-28T17:30:09.774Z,25.42
2022-08-28T17:33:11.994Z,25.38
2022-08-28T17:36:21.464Z,25.36
2022-08-28T17:39:35.106Z,25.29
2022-08-28T17:42:37.308Z,25.27
2022-08-28T17:45:40.120Z,25.23
2022-08-28T17:48:42.420Z,25.21
2022-08-28T17:51:56.460Z,25.16
2022-08-28T17:54:58.668Z,25.16
2022-08-28T17:58:00.774Z,25.15
2022-08-28T18:01:03.648Z,25.13
2022-08-28T18:04:05.991Z,25.10
2022-08-28T18:07:08.133Z,25.08
2022-08-28T18:10:11.695Z,25.04
2022-08-28T18:13:15.124Z,25.04
2022-08-28T18:16:18.046Z,25.00
2022-08-28T18:19:20.189Z,24.93
2022-08-28T18:22:25.366Z,24.91
2022-08-28T18:25:42.218Z,24.89
2022-08-28T18:28:49.175Z,24.88
2022-08-28T18:31:51.332Z,24.82
2022-08-28T18:34:53.536Z,24.89
2022-08-28T18:37:56.385Z,24.90
2022-08-28T18:40:59.677Z,24.95
2022-08-28T18:44:04.766Z,24.92
2022-08-28T18:47:07.428Z,24.93
2022-08-28T18:50:10.176Z,24.91
2022-08-28T18:53:12.273Z,24.91
2022-08-28T18:56:14.657Z,24.86
2022-08-28T18:59:17.057Z,24.86
2022-08-28T19:02:19.394Z,24.86
2022-08-28T19:05:21.783Z,24.84
2022-08-28T19:08:25.246Z,24.79
2022-08-28T19:11:30.168Z,24.78
2022-08-28T19:14:33.301Z,24.77
2022-08-28T19:17:37.087Z,24.75
2022-08-28T19:20:39.181Z,24.77
2022-08-28T19:23:41.399Z,24.75
2022-08-28T19:26:57.841Z,24.74
2022-08-28T19:29:59.978Z,24.73
2022-08-28T19:33:04.262Z,24.72
2022-08-28T19:36:06.710Z,24.70
2022-08-28T19:39:08.831Z,24.64
2022-08-28T19:42:10.878Z,24.65
2022-08-28T19:45:14.154Z,24.63
2022-08-28T19:48:16.585Z,24.62
2022-08-28T19:51:23.219Z,24.61
2022-08-28T19:54:26.165Z,24.59
2022-08-28T19:57:28.349Z,24.57
2022-08-28T20:00:31.857Z,24.60
2022-08-28T20:03:34.483Z,24.58
2022-08-28T20:06:37.180Z,24.57
2022-08-28T20:09:39.375Z,24.58
2022-08-28T20:12:48.004Z,24.56
2022-08-28T20:15:52.907Z,24.56
2022-08-28T20:18:57.703Z,24.55
2022-08-28T20:21:59.959Z,24.56
2022-08-28T20:25:02.149Z,24.57
2022-08-28T20:28:04.597Z,24.55
2022-08-28T20:31:12.281Z,24.56
2022-08-28T20:34:17.492Z,24.54
2022-08-28T20:37:19.687Z,24.56
2022-08-28T20:40:22.092Z,24.53
2022-08-28T20:43:24.261Z,24.51
2022-08-28T20:46:26.541Z,24.56
2022-08-28T20:49:28.865Z,24.46
2022-08-28T20:52:30.924Z,24.43
2022-08-28T20:55:33.019Z,24.30
2022-08-28T20:58:35.536Z,24.27
2022-08-28T21:01:37.776Z,24.31
2022-08-28T21:04:41.943Z,24.25
2022-08-28T21:07:44.143Z,24.17
2022-08-28T21:10:46.809Z,24.21
2022-08-28T21:13:49.036Z,24.24
2022-08-28T21:16:51.137Z,24.19
2022-08-28T21:19:53.606Z,24.09
2022-08-28T21:22:56.207Z,24.13
2022-08-28T21:25:58.374Z,24.11
2022-08-28T21:29:00.446Z,24.15
2022-08-28T21:32:03.139Z,24.11
2022-08-28T21:35:07.784Z,24.11
2022-08-28T21:38:09.819Z,24.10
2022-08-28T21:41:13.949Z,24.04
2022-08-28T21:44:16.492Z,24.05
2022-08-28T21:47:19.970Z,23.88
2022-08-28T21:50:22.139Z,23.86
2022-08-28T21:53:24.945Z,23.86
2022-08-28T21:56:28.862Z,23.86
2022-08-28T21:59:37.676Z,23.85
2022-08-28T22:02:40.060Z,23.79
2022-08-28T22:05:43.631Z,23.80
2022-08-28T22:08:46.668Z,23.79
2022-08-28T22:11:48.715Z,23.84
2022-08-28T22:14:50.844Z,23.75
2022-08-28T22:17:53.377Z,23.80
2022-08-28T22:21:13.950Z,23.75
2022-08-28T22:24:16.363Z,23.76
2022-08-28T22:27:18.686Z,23.80
2022-08-28T22:30:21.204Z,23.70
2022-08-28T22:33:23.303Z,23.68
2022-08-28T22:36:29.247Z,23.58
2022-08-28T22:39:31.527Z,23.58
2022-08-28T22:42:33.707Z,23.46
2022-08-28T22:45:35.886Z,23.51
2022-08-28T22:48:38.026Z,23.50
2022-08-28T22:51:40.120Z,23.31
2022-08-28T22:54:43.184Z,23.42
2022-08-28T22:57:45.678Z,23.41
2022-08-28T23:00:47.872Z,23.39
2022-08-28T23:03:51.099Z,23.40
2022-08-28T23:06:53.920Z,23.38
2022-08-28T23:09:56.230Z,23.26
2022-08-28T23:12:58.359Z,23.24
2022-08-28T23:16:01.620Z,23.31
2022-08-28T23:19:08.764Z,23.32
2022-08-28T23:22:11.750Z,23.26
2022-08-28T23:25:16.771Z,23.20
2022-08-28T23:28:19.091Z,23.28
2022-08-28T23:31:21.326Z,23.17
2022-08-28T23:34:23.855Z,23.11
2022-08-28T23:37:26.340Z,23.07
2022-08-28T23:40:28.552Z,23.15
2022-08-28T23:43:32.347Z,23.08
2022-08-28T23:46:34.463Z,23.10
2022-08-28T23:49:41.549Z,23.08
2022-08-28T23:52:45.413Z,23.07
2022-08-28T23:55:48.707Z,22.91
2022-08-28T23:58:54.101Z,22.98
